Aérodrome :
LOGIN :

S'inscrire | Disclaimer

   EN    FR    IT 

 










Légende :    VFR   VFR Marginal   IFR   IFR Intensif   IFR Très Intensif
Visi : 
Plafond : 
>= 8 km
>= 3000ft
5 à 8 km
1000 à 3000 ft
1500m à 5 km
500 à 1000 ft
800 à 1500m
200 à 500 ft
< 800m
< 200 ft
Symboles :   Orages  Brouillard  Fortes neiges  Fortes précipitations  Vent > 20 kt
SIGMETs :   Divers  Orages  Givrage  Turbulence  Onde Orograph.  Cendres Volcan.






- Altitude de l'aérodrome : 782 ft
- Code IATA : BGY


LIME - Orio al Serio International - Bergamo

DERNIER METAR :
  • 131450Z 32005KT 9999 SCT050 29/17 Q1010 NOSIG

METARs EXPIRÉS :
  • 131420Z VRB05KT 9999 SCT050 29/18 Q1010 NOSIG
  • 131350Z 28006KT 230V330 9999 SCT050 29/18 Q1010 NOSIG
  • 131320Z 28007KT 240V350 9999 SCT045 28/18 Q1010 NOSIG
  • 131250Z 29008KT 250V320 9999 SCT045 29/18 Q1010 NOSIG
  • 131220Z 28006KT 230V320 9999 SCT045 28/18 Q1010 NOSIG
  • 131150Z 31005KT 270V020 9999 FEW035 27/19 Q1010 NOSIG
  • 131120Z VRB06KT 9999 FEW035 27/20 Q1011 NOSIG
  • 131050Z 23006KT 200V290 9999 FEW035 27/20 Q1011 NOSIG
  • 131020Z 23006KT 180V260 9999 FEW030 26/19 Q1011 NOSIG

TAF TAF LIME
Valide du 13 à 12h jusqu'au 14 à 12h UTC


131100Z 1312/1412 VRB05KT 9999 SCT020



MET'MAP, la Météo Aéronautique d'un coup d'oeil ! - Copyright ORBIFLY Décembre 2007 - Disclaimer

ORBIFLY MET'MAP TEAM :

Programmation & Développement : Alexandra Zaïnal
Sur une idée originale de : Baudouin d'Aumeries
Soutien technique & logistique : Manuel Goepfert
Assistance : Marc-Olivier Méhu




SOURCES & CREDITS :

   NOAA